Time;durP1;ratioP1;P1;durP2;ratioP2;P2;SDS_P1;SDS_P2;PMS_P1;PMS_P2;Temp;Humidity;BMP_temperature;BMP_pressure;BME280_temperature;BME280_humidity;BME280_pressure;Samples;Min_cycle;Max_cycle;Signal;HPM_P1;HPM_P2
2023/01/09 00:02:29;;;;;;;5.28;4.25;;;-6.60;84.60;;;;;;1924667;74;21058;-53
2023/01/09 00:04:58;;;;;;;7.40;3.70;;;-6.70;82.10;;;;;;1924709;74;21088;-50
2023/01/09 00:07:27;;;;;;;5.25;4.70;;;-6.80;83.30;;;;;;1924719;74;20975;-52
2023/01/09 00:09:56;;;;;;;10.50;6.47;;;-7.00;83.30;;;;;;1924724;74;21068;-54
2023/01/09 00:12:25;;;;;;;10.13;5.85;;;-7.00;84.70;;;;;;1924717;74;21014;-52
2023/01/09 00:14:54;;;;;;;15.43;6.85;;;-6.90;86.00;;;;;;1924693;74;21042;-53
2023/01/09 00:17:23;;;;;;;10.98;6.75;;;-6.80;85.50;;;;;;1924829;74;21070;-51
2023/01/09 00:19:52;;;;;;;10.80;6.65;;;-6.70;85.40;;;;;;1924744;74;21019;-51
2023/01/09 00:22:22;;;;;;;10.13;5.87;;;-6.70;85.40;;;;;;1924728;74;21111;-51
2023/01/09 00:24:51;;;;;;;11.85;5.92;;;-6.60;85.60;;;;;;1924835;74;21007;-52
2023/01/09 00:27:20;;;;;;;15.10;6.12;;;-6.40;86.10;;;;;;1924700;74;21094;-52
2023/01/09 00:29:49;;;;;;;6.33;4.05;;;-6.30;85.70;;;;;;1924686;74;20983;-54
2023/01/09 00:32:19;;;;;;;6.53;5.22;;;-6.40;82.50;;;;;;1924744;74;21056;-51
2023/01/09 00:34:48;;;;;;;9.18;5.08;;;-6.60;83.10;;;;;;1924662;74;21030;-50
2023/01/09 00:37:18;;;;;;;3.08;2.87;;;-6.80;83.30;;;;;;1924789;74;21108;-51
2023/01/09 00:39:47;;;;;;;7.12;5.65;;;-7.00;81.80;;;;;;1924729;74;21073;-52
2023/01/09 00:42:21;;;;;;;4.08;2.87;;;-7.20;82.40;;;;;;1924770;74;21127;-51
2023/01/09 00:44:53;;;;;;;7.08;6.05;;;-7.40;83.30;;;;;;1924845;74;21102;-51
2023/01/09 00:47:27;;;;;;;4.70;4.15;;;-7.50;84.40;;;;;;1924371;74;21180;-52
2023/01/09 00:49:59;;;;;;;7.33;4.72;;;-7.50;85.50;;;;;;1924813;74;21031;-54
2023/01/09 00:52:31;;;;;;;4.97;4.55;;;-7.40;85.60;;;;;;1924838;74;21511;-50
2023/01/09 00:55:00;;;;;;;6.42;4.85;;;-7.30;85.50;;;;;;1924661;74;21069;-51
2023/01/09 00:57:29;;;;;;;8.65;5.12;;;-7.20;86.10;;;;;;1924646;74;21070;-52
2023/01/09 01:00:00;;;;;;;7.22;4.10;;;-7.20;84.80;;;;;;1924698;74;21015;-51
2023/01/09 01:02:32;;;;;;;12.13;6.42;;;-7.20;85.10;;;;;;1924716;74;20998;-51
2023/01/09 01:07:49;;;;;;;17.45;8.40;;;-7.10;86.30;;;;;;1924706;74;21036;-53
2023/01/09 01:10:20;;;;;;;12.82;6.60;;;-6.90;86.20;;;;;;1924789;74;21113;-51
2023/01/09 01:12:50;;;;;;;12.13;8.03;;;-6.70;86.00;;;;;;1924723;74;20998;-53
2023/01/09 01:15:20;;;;;;;7.75;5.40;;;-6.50;86.40;;;;;;1924676;74;21080;-50
2023/01/09 01:17:49;;;;;;;23.45;9.18;;;-6.40;86.20;;;;;;1924674;74;21043;-52
2023/01/09 01:20:19;;;;;;;10.75;7.20;;;-6.30;85.70;;;;;;1924696;74;21011;-53
2023/01/09 01:22:48;;;;;;;14.45;6.62;;;-6.20;86.70;;;;;;1924676;74;21133;-52
2023/01/09 01:25:18;;;;;;;15.40;8.28;;;-6.10;86.50;;;;;;1924784;74;21066;-51
2023/01/09 01:27:47;;;;;;;14.83;7.85;;;-6.00;85.80;;;;;;1924724;74;21062;-51
2023/01/09 01:30:17;;;;;;;9.48;5.53;;;-6.00;85.30;;;;;;1924792;74;21124;-52
2023/01/09 01:32:46;;;;;;;27.98;6.10;;;-6.10;84.70;;;;;;1924810;74;21100;-50
2023/01/09 01:35:15;;;;;;;11.53;5.67;;;-6.20;84.50;;;;;;1924666;74;21018;-53
2023/01/09 01:37:45;;;;;;;9.53;4.62;;;-6.30;83.70;;;;;;1924674;74;21022;-52
2023/01/09 01:40:14;;;;;;;13.83;7.08;;;-6.40;84.50;;;;;;1924693;74;21074;-52
2023/01/09 01:42:48;;;;;;;10.93;6.30;;;-6.50;85.10;;;;;;1924784;74;21072;-51
2023/01/09 01:45:22;;;;;;;7.57;4.90;;;-6.50;85.70;;;;;;1925248;74;21042;-52
2023/01/09 01:48:01;;;;;;;;;;;-6.50;85.60;;;;;;1927698;74;20983;-51
2023/01/09 01:50:38;;;;;;;8.98;4.25;;;-6.60;86.50;;;;;;1924831;74;20100;-53
2023/01/09 01:53:25;;;;;;;6.03;4.72;;;-6.60;86.00;;;;;;1924812;74;21018;-50
2023/01/09 01:56:12;;;;;;;4.17;3.17;;;-6.70;81.70;;;;;;1924777;74;21085;-52
2023/01/09 01:58:53;;;;;;;11.73;4.83;;;-7.00;83.60;;;;;;1924829;74;21007;-52
2023/01/09 02:01:24;;;;;;;11.80;6.35;;;-7.20;84.10;;;;;;1924851;74;21042;-51
2023/01/09 02:03:56;;;;;;;5.45;4.37;;;-7.20;85.40;;;;;;1917681;74;21043;-49
2023/01/09 02:06:26;;;;;;;4.83;4.37;;;-7.20;86.60;;;;;;1905410;75;21407;-52
2023/01/09 02:08:57;;;;;;;12.93;4.92;;;-7.10;86.00;;;;;;1905431;75;21085;-49
2023/01/09 02:11:26;;;;;;;8.75;5.83;;;-7.00;85.60;;;;;;1905521;75;21008;-50
2023/01/09 02:13:55;;;;;;;12.65;4.35;;;-7.00;85.00;;;;;;1905446;75;21012;-53
2023/01/09 02:16:39;;;;;;;6.40;4.22;;;-7.10;85.10;;;;;;1905295;75;21081;-54
2023/01/09 02:19:16;;;;;;;8.80;6.20;;;-7.10;85.60;;;;;;1905083;74;20987;-53
2023/01/09 02:21:57;;;;;;;11.50;5.10;;;-7.00;85.90;;;;;;1904910;74;21113;-52
2023/01/09 02:24:47;;;;;;;8.03;4.92;;;-6.90;86.80;;;;;;1904602;74;21594;-54
2023/01/09 02:27:54;;;;;;;9.28;6.67;;;-6.80;86.60;;;;;;1905430;75;21083;-53
2023/01/09 02:30:41;;;;;;;9.90;4.83;;;-6.70;86.10;;;;;;1905483;75;21023;-52
2023/01/09 02:33:15;;;;;;;7.42;5.08;;;-6.60;85.20;;;;;;1905395;75;21442;-52
2023/01/09 02:35:48;;;;;;;6.60;5.60;;;-6.60;85.40;;;;;;1905446;74;21103;-51
2023/01/09 02:38:25;;;;;;;9.83;6.17;;;-6.60;85.30;;;;;;1905068;74;21059;-54
2023/01/09 02:40:57;;;;;;;13.25;6.72;;;-6.50;85.70;;;;;;1905204;74;21047;-51
2023/01/09 02:43:27;;;;;;;12.20;5.67;;;-6.50;86.00;;;;;;1905151;74;20988;-53
2023/01/09 02:45:56;;;;;;;13.68;7.70;;;-6.40;86.10;;;;;;1905378;75;21136;-49
2023/01/09 02:48:25;;;;;;;15.63;7.03;;;-6.40;85.90;;;;;;1905368;75;21000;-52
2023/01/09 02:51:00;;;;;;;13.13;7.05;;;-6.40;86.40;;;;;;1905373;75;21007;-51
2023/01/09 02:53:35;;;;;;;;;;;-6.40;86.10;;;;;;1908332;74;21090;-53
2023/01/09 02:56:17;;;;;;;;;;;-6.40;86.10;;;;;;1908207;75;20109;-51
2023/01/09 02:59:00;;;;;;;11.63;4.97;;;-6.40;85.90;;;;;;1904860;74;20101;-53
2023/01/09 03:01:43;;;;;;;10.85;6.25;;;-6.40;85.80;;;;;;1905201;74;21094;-53
2023/01/09 03:04:38;;;;;;;5.20;4.55;;;-6.30;86.40;;;;;;1905374;74;21125;-52
2023/01/09 03:07:19;;;;;;;12.95;6.58;;;-6.30;86.90;;;;;;1905543;75;20995;-53
2023/01/09 03:09:50;;;;;;;14.43;8.25;;;-6.30;84.70;;;;;;1905301;74;21121;-52
2023/01/09 03:12:22;;;;;;;9.53;5.53;;;-6.50;84.70;;;;;;1905481;75;21003;-53
2023/01/09 03:14:53;;;;;;;10.10;5.92;;;-6.60;84.90;;;;;;1905352;75;21069;-53
2023/01/09 03:17:31;;;;;;;5.87;4.08;;;-6.70;84.30;;;;;;1905329;75;20999;-53
2023/01/09 03:20:03;;;;;;;13.70;6.17;;;-6.90;85.80;;;;;;1905318;74;21436;-51
2023/01/09 03:22:32;;;;;;;8.88;6.55;;;-6.90;85.60;;;;;;1905353;75;21108;-51
2023/01/09 03:25:01;;;;;;;11.93;5.42;;;-6.90;85.30;;;;;;1905377;74;21039;-53
2023/01/09 03:27:30;;;;;;;8.08;5.35;;;-7.00;85.60;;;;;;1905331;75;21015;-52
2023/01/09 03:29:59;;;;;;;9.20;5.30;;;-7.00;85.60;;;;;;1905459;75;21102;-53
2023/01/09 03:32:28;;;;;;;9.88;5.50;;;-7.00;85.70;;;;;;1905314;75;20987;-52
2023/01/09 03:34:58;;;;;;;5.47;4.85;;;-7.00;85.30;;;;;;1905317;75;21065;-54
2023/01/09 03:37:27;;;;;;;10.85;5.97;;;-7.00;85.80;;;;;;1905312;75;21043;-53
2023/01/09 03:39:56;;;;;;;12.93;6.22;;;-7.00;86.00;;;;;;1905402;75;21011;-52
2023/01/09 03:42:25;;;;;;;7.53;4.42;;;-6.90;86.70;;;;;;1905344;75;20991;-54
2023/01/09 03:44:55;;;;;;;11.90;6.97;;;-6.70;86.80;;;;;;1905380;75;21050;-50
2023/01/09 03:47:24;;;;;;;11.68;6.72;;;-6.60;86.40;;;;;;1905364;75;21040;-54
2023/01/09 03:49:53;;;;;;;9.78;5.92;;;-6.50;86.40;;;;;;1905503;75;21007;-54
2023/01/09 03:52:22;;;;;;;12.15;6.15;;;-6.50;86.70;;;;;;1905428;75;21039;-54
2023/01/09 03:54:51;;;;;;;10.53;5.75;;;-6.30;87.10;;;;;;1905251;75;21101;-55
2023/01/09 03:57:20;;;;;;;6.40;5.03;;;-6.20;86.60;;;;;;1905319;75;21105;-55
2023/01/09 03:59:49;;;;;;;6.22;4.08;;;-6.10;87.30;;;;;;1905344;75;21019;-54
2023/01/09 04:02:18;;;;;;;8.18;5.00;;;-6.10;86.40;;;;;;1905411;75;21069;-52
2023/01/09 04:04:47;;;;;;;11.28;6.90;;;-6.10;86.40;;;;;;1905269;74;21098;-52
2023/01/09 04:07:17;;;;;;;14.85;7.15;;;-6.10;87.10;;;;;;1905306;74;20980;-51
2023/01/09 04:09:46;;;;;;;11.95;6.00;;;-6.10;86.90;;;;;;1905346;75;21023;-55
2023/01/09 04:12:15;;;;;;;10.60;5.33;;;-6.10;86.00;;;;;;1905469;75;21023;-53
2023/01/09 04:14:44;;;;;;;9.68;5.10;;;-6.20;84.20;;;;;;1905404;75;21024;-54
2023/01/09 04:17:15;;;;;;;10.35;5.78;;;-6.30;86.30;;;;;;1905405;75;21073;-53
2023/01/09 04:19:43;;;;;;;9.18;6.00;;;-6.40;86.50;;;;;;1905619;74;21101;-54
2023/01/09 04:22:12;;;;;;;16.42;7.25;;;-6.50;87.10;;;;;;1905459;75;21035;-52
2023/01/09 04:24:42;;;;;;;12.37;5.55;;;-6.40;87.10;;;;;;1905509;75;21109;-52
2023/01/09 04:27:11;;;;;;;10.45;5.53;;;-6.40;86.60;;;;;;1905566;75;21138;-54
2023/01/09 04:29:41;;;;;;;7.75;5.40;;;-6.50;86.50;;;;;;1905389;75;21459;-52
2023/01/09 04:32:10;;;;;;;14.10;6.70;;;-6.50;87.20;;;;;;1905449;75;21012;-52
2023/01/09 04:34:39;;;;;;;11.22;6.83;;;-6.50;87.30;;;;;;1905384;75;20983;-51
2023/01/09 04:37:08;;;;;;;7.50;4.08;;;-6.50;87.00;;;;;;1905383;75;21054;-53
2023/01/09 04:39:37;;;;;;;10.50;5.83;;;-6.40;87.60;;;;;;1905262;75;21023;-52
2023/01/09 04:42:06;;;;;;;6.53;4.00;;;-6.50;85.80;;;;;;1905437;75;21007;-54
2023/01/09 04:44:35;;;;;;;10.75;6.05;;;-6.60;85.50;;;;;;1905359;75;21011;-51
2023/01/09 04:47:05;;;;;;;13.85;6.85;;;-6.70;84.40;;;;;;1905309;75;21003;-54
2023/01/09 04:49:34;;;;;;;8.13;3.77;;;-6.80;86.80;;;;;;1905338;75;21000;-57
2023/01/09 04:52:05;;;;;;;13.83;7.85;;;-6.80;87.10;;;;;;1904438;74;21042;-53
2023/01/09 04:54:34;;;;;;;4.65;3.33;;;-6.80;88.30;;;;;;1905336;75;21073;-53
2023/01/09 04:57:03;;;;;;;4.08;3.10;;;-6.70;86.10;;;;;;1905256;75;21019;-54
2023/01/09 04:59:32;;;;;;;10.50;6.28;;;-6.80;86.50;;;;;;1905263;75;21077;-53
2023/01/09 05:02:01;;;;;;;3.50;3.15;;;-6.80;85.10;;;;;;1905317;75;21055;-52
2023/01/09 05:04:31;;;;;;;22.77;6.70;;;-6.90;86.60;;;;;;1905321;75;21470;-54
2023/01/09 05:07:00;;;;;;;7.62;6.08;;;-6.90;87.60;;;;;;1922849;74;21062;-54
2023/01/09 05:09:30;;;;;;;10.80;8.25;;;-6.80;88.10;;;;;;1924812;74;21030;-53
2023/01/09 05:11:59;;;;;;;8.50;4.80;;;-6.60;89.10;;;;;;1924687;74;21058;-55
2023/01/09 05:14:28;;;;;;;14.68;8.08;;;-6.60;88.60;;;;;;1924704;74;21156;-53
2023/01/09 05:16:57;;;;;;;5.17;4.78;;;-6.50;87.70;;;;;;1924834;74;21002;-50
2023/01/09 05:19:27;;;;;;;7.85;5.33;;;-6.50;86.70;;;;;;1924757;74;21014;-52
2023/01/09 05:21:56;;;;;;;8.33;5.90;;;-6.50;87.80;;;;;;1924790;74;21003;-53
2023/01/09 05:24:24;;;;;;;16.65;7.85;;;-6.50;88.30;;;;;;1924754;74;21006;-51
2023/01/09 05:26:54;;;;;;;12.98;7.35;;;-6.30;88.90;;;;;;1924888;74;21085;-52
2023/01/09 05:29:23;;;;;;;10.72;6.83;;;-6.30;87.70;;;;;;1924774;74;21065;-51
2023/01/09 05:31:52;;;;;;;10.32;6.90;;;-6.20;88.90;;;;;;1924748;74;21060;-54
2023/01/09 05:34:21;;;;;;;12.65;7.97;;;-6.10;88.30;;;;;;1924734;74;21457;-53
2023/01/09 05:36:50;;;;;;;16.50;7.83;;;-5.90;88.40;;;;;;1924627;74;21097;-53
2023/01/09 05:39:20;;;;;;;15.08;7.97;;;-5.80;88.30;;;;;;1924638;74;20983;-52
2023/01/09 05:41:49;;;;;;;22.37;8.70;;;-5.70;88.00;;;;;;1924637;74;21082;-53
2023/01/09 05:44:18;;;;;;;14.60;8.48;;;-5.60;88.50;;;;;;1924673;74;21002;-52
2023/01/09 05:46:47;;;;;;;17.45;9.93;;;-5.50;88.30;;;;;;1924757;74;21093;-53
2023/01/09 05:49:16;;;;;;;18.62;10.58;;;-5.40;87.80;;;;;;1924805;74;21002;-53
2023/01/09 05:51:45;;;;;;;13.22;8.73;;;-5.30;87.70;;;;;;1924790;74;21159;-53
2023/01/09 05:54:14;;;;;;;19.55;9.88;;;-5.30;87.20;;;;;;1924818;74;21090;-52
2023/01/09 05:56:43;;;;;;;17.07;9.00;;;-5.20;87.20;;;;;;1924749;74;21011;-53
2023/01/09 05:59:12;;;;;;;18.77;9.98;;;-5.20;87.30;;;;;;1924736;74;21453;-52
2023/01/09 06:01:41;;;;;;;26.12;10.95;;;-5.20;88.00;;;;;;1924797;74;21006;-53
2023/01/09 06:04:10;;;;;;;14.15;8.20;;;-5.10;88.50;;;;;;1924732;74;21515;-54
2023/01/09 06:06:40;;;;;;;9.90;6.75;;;-5.10;87.30;;;;;;1924710;74;21042;-51
2023/01/09 06:09:09;;;;;;;14.28;7.87;;;-5.10;88.00;;;;;;1924846;74;21156;-54
2023/01/09 06:11:38;;;;;;;15.95;7.58;;;-5.10;86.20;;;;;;1924813;74;21022;-54
2023/01/09 06:14:07;;;;;;;15.38;8.05;;;-5.30;86.60;;;;;;1924786;74;21042;-53
2023/01/09 06:16:36;;;;;;;15.48;7.47;;;-5.40;84.10;;;;;;1924734;74;21046;-50
2023/01/09 06:19:06;;;;;;;14.83;7.10;;;-5.60;85.30;;;;;;1924746;74;21010;-55
2023/01/09 06:21:35;;;;;;;15.58;8.88;;;-5.70;85.90;;;;;;1924877;74;21104;-52
2023/01/09 06:24:04;;;;;;;12.25;7.58;;;-5.90;86.20;;;;;;1924792;74;21077;-54
2023/01/09 06:26:33;;;;;;;10.95;6.83;;;-6.00;86.50;;;;;;1924838;74;21003;-52
2023/01/09 06:29:03;;;;;;;11.60;8.13;;;-5.90;88.00;;;;;;1924717;74;21022;-53
2023/01/09 06:31:32;;;;;;;9.13;5.95;;;-5.90;86.50;;;;;;1924752;74;21064;-52
2023/01/09 06:34:01;;;;;;;7.58;5.25;;;-5.90;86.50;;;;;;1924724;74;21496;-53
2023/01/09 06:36:30;;;;;;;10.45;6.70;;;-5.90;85.60;;;;;;1924712;74;21035;-54
2023/01/09 06:38:59;;;;;;;9.80;4.40;;;-5.90;86.40;;;;;;1924698;74;21117;-52
2023/01/09 06:41:28;;;;;;;21.00;5.97;;;-6.00;83.80;;;;;;1924739;74;20995;-53
2023/01/09 06:43:57;;;;;;;10.70;7.60;;;-6.10;84.70;;;;;;1924693;74;21026;-52
2023/01/09 06:46:27;;;;;;;10.88;8.25;;;-6.20;85.50;;;;;;1924724;74;21039;-53
2023/01/09 06:48:56;;;;;;;6.62;5.42;;;-6.20;85.90;;;;;;1924777;74;21043;-54
2023/01/09 06:51:25;;;;;;;5.90;3.20;;;-6.20;84.70;;;;;;1924851;74;21065;-53
2023/01/09 06:53:54;;;;;;;9.15;5.47;;;-6.30;83.20;;;;;;1924715;74;21014;-49
2023/01/09 06:56:23;;;;;;;15.35;8.15;;;-6.50;84.50;;;;;;1924856;74;21199;-54
2023/01/09 06:58:52;;;;;;;6.97;4.03;;;-6.50;86.30;;;;;;1924715;74;21515;-55
2023/01/09 07:01:21;;;;;;;14.58;6.83;;;-6.40;86.50;;;;;;1924719;74;21155;-53
2023/01/09 07:03:50;;;;;;;13.32;6.97;;;-6.30;86.20;;;;;;1924708;74;21010;-53
2023/01/09 07:06:20;;;;;;;15.63;6.85;;;-6.20;85.00;;;;;;1924686;74;21143;-53
2023/01/09 07:08:49;;;;;;;6.65;3.17;;;-6.20;85.60;;;;;;1924736;74;21074;-52
2023/01/09 07:11:21;;;;;;;6.65;3.20;;;-6.20;84.40;;;;;;1924768;74;21497;-53
2023/01/09 07:13:49;;;;;;;11.48;6.85;;;-6.20;84.70;;;;;;1924869;74;21034;-53
2023/01/09 07:16:18;;;;;;;3.98;3.67;;;-6.20;84.90;;;;;;1924728;74;21096;-53
2023/01/09 07:18:47;;;;;;;5.22;3.58;;;-6.20;82.50;;;;;;1924831;74;21449;-52
2023/01/09 07:21:16;;;;;;;4.75;3.80;;;-6.30;83.30;;;;;;1924757;74;21068;-51
2023/01/09 07:23:46;;;;;;;7.30;4.58;;;-6.40;82.70;;;;;;1924749;74;21074;-53
2023/01/09 07:26:15;;;;;;;7.97;5.17;;;-6.40;82.40;;;;;;1924775;74;21006;-54
2023/01/09 07:28:46;;;;;;;7.05;5.28;;;-6.50;83.70;;;;;;1924739;74;21506;-54
2023/01/09 07:31:15;;;;;;;5.50;4.92;;;-6.50;83.60;;;;;;1924862;74;21468;-52
2023/01/09 07:33:43;;;;;;;9.23;6.15;;;-6.50;84.30;;;;;;1924682;74;21076;-53
2023/01/09 07:36:13;;;;;;;11.18;6.55;;;-6.50;84.50;;;;;;1924780;74;21096;-53
2023/01/09 07:38:41;;;;;;;6.50;4.50;;;-6.40;84.70;;;;;;1924656;74;21007;-54
2023/01/09 07:41:11;;;;;;;7.25;4.75;;;-6.40;83.00;;;;;;1924774;74;21127;-53
2023/01/09 07:43:40;;;;;;;4.67;3.70;;;-6.40;84.00;;;;;;1924714;74;21030;-50
2023/01/09 07:46:09;;;;;;;10.80;6.42;;;-6.40;83.00;;;;;;1924783;74;21074;-54
2023/01/09 07:48:39;;;;;;;5.62;3.05;;;-6.40;84.30;;;;;;1924743;74;20983;-52
2023/01/09 07:51:09;;;;;;;9.05;4.80;;;-6.40;83.70;;;;;;1924714;74;20983;-53
2023/01/09 07:53:38;;;;;;;2.40;2.00;;;-6.30;83.10;;;;;;1924699;74;21080;-55
2023/01/09 07:56:08;;;;;;;6.47;5.58;;;-6.40;83.00;;;;;;1924775;74;21127;-55
2023/01/09 07:58:37;;;;;;;4.37;4.00;;;-6.30;83.50;;;;;;1924699;74;21080;-50
2023/01/09 08:01:06;;;;;;;7.40;4.28;;;-6.30;83.80;;;;;;1924764;74;21018;-54
2023/01/09 08:03:35;;;;;;;8.33;6.33;;;-6.20;84.50;;;;;;1924716;74;21430;-51
2023/01/09 08:06:04;;;;;;;12.23;7.28;;;-6.20;84.70;;;;;;1924742;74;21007;-53
2023/01/09 08:08:33;;;;;;;4.85;4.45;;;-6.00;85.10;;;;;;1911008;74;21157;-53
2023/01/09 08:11:02;;;;;;;5.83;3.95;;;-5.90;83.70;;;;;;1905349;75;21028;-54
2023/01/09 08:13:32;;;;;;;10.23;6.35;;;-5.60;93.40;;;;;;1903882;75;21126;-54
2023/01/09 08:16:01;;;;;;;14.20;8.95;;;-4.60;95.70;;;;;;1904710;74;21544;-46
2023/01/09 08:18:30;;;;;;;12.50;8.45;;;-3.90;93.20;;;;;;1904762;75;21058;-48
2023/01/09 08:20:59;;;;;;;3.95;3.02;;;-3.50;90.40;;;;;;1904533;75;21031;-48
2023/01/09 08:23:28;;;;;;;9.95;5.22;;;-3.40;83.30;;;;;;1904655;75;21067;-49
2023/01/09 08:25:57;;;;;;;14.55;6.85;;;-3.70;83.30;;;;;;1904661;75;21475;-47
2023/01/09 08:28:27;;;;;;;10.90;6.35;;;-4.00;83.10;;;;;;1899347;75;21031;-51
2023/01/09 08:30:56;;;;;;;9.15;5.20;;;-4.30;83.80;;;;;;1872248;77;21085;-54
2023/01/09 08:33:26;;;;;;;10.70;5.90;;;-4.40;81.40;;;;;;1872276;77;21089;-48
2023/01/09 08:35:55;;;;;;;11.57;5.67;;;-4.60;83.60;;;;;;1872084;77;21106;-53
2023/01/09 08:38:24;;;;;;;9.08;4.80;;;-4.60;83.90;;;;;;1872198;77;21034;-47
2023/01/09 08:40:53;;;;;;;9.95;6.83;;;-4.70;84.50;;;;;;1872122;77;21132;-47
2023/01/09 08:49:11;;;;;;;12.45;7.22;;;-4.80;83.00;;;;;;1872058;76;21154;-51
2023/01/09 08:51:40;;;;;;;5.60;4.50;;;-4.90;82.40;;;;;;1872184;77;21130;-51
2023/01/09 08:54:09;;;;;;;6.42;3.52;;;-5.00;82.30;;;;;;1872207;77;21082;-51
2023/01/09 08:56:38;;;;;;;7.28;4.35;;;-5.10;83.10;;;;;;1872059;76;21082;-47
2023/01/09 08:59:08;;;;;;;13.48;7.45;;;-5.10;82.30;;;;;;1872216;77;21140;-51
2023/01/09 09:01:37;;;;;;;11.45;8.18;;;-5.10;84.40;;;;;;1872107;77;21136;-47
2023/01/09 09:04:06;;;;;;;8.25;4.72;;;-5.00;84.30;;;;;;1872119;77;21007;-47
2023/01/09 09:06:35;;;;;;;6.53;5.53;;;-5.00;83.90;;;;;;1872410;77;21080;-50
2023/01/09 09:09:05;;;;;;;17.25;8.98;;;-4.90;83.70;;;;;;1884592;75;21614;-49
2023/01/09 09:11:35;;;;;;;11.88;7.67;;;-4.80;84.40;;;;;;1891001;76;21070;-50
2023/01/09 09:15:11;;;;;;;9.45;5.50;;;-4.80;83.70;;;;;;1891272;76;21068;-48
2023/01/09 09:16:35;;;;;;;6.92;4.03;;;-4.70;84.00;;;;;;1887963;76;21136;-51
2023/01/09 09:19:04;;;;;;;4.30;3.87;;;-4.60;82.50;;;;;;1891205;76;21046;-46
2023/01/09 09:21:33;;;;;;;8.25;5.70;;;-4.70;82.70;;;;;;1891181;76;21128;-48
2023/01/09 09:24:02;;;;;;;13.25;7.20;;;-4.70;82.00;;;;;;1891282;76;21046;-54
2023/01/09 10:16:59;;;;;;;5.60;4.25;;;-3.90;82.40;;;;;;1917716;74;21222;-48
2023/01/09 10:19:40;;;;;;;8.65;4.55;;;-3.80;81.50;;;;;;1917657;75;21072;-47
2023/01/09 10:22:30;;;;;;;11.90;8.08;;;-3.70;81.70;;;;;;1917795;75;21156;-49
2023/01/09 10:25:23;;;;;;;6.22;3.67;;;-3.70;82.60;;;;;;1917749;75;21470;-47
2023/01/09 10:28:13;;;;;;;12.95;6.83;;;-3.50;81.70;;;;;;1917358;74;21011;-48
2023/01/09 10:31:06;;;;;;;13.45;10.43;;;-3.50;81.40;;;;;;1917790;75;21042;-46
2023/01/09 10:33:43;;;;;;;7.97;4.65;;;-3.50;80.50;;;;;;1916923;74;21132;-46
2023/01/09 10:36:18;;;;;;;8.18;5.60;;;-3.40;80.20;;;;;;1916929;74;21078;-48
2023/01/09 10:38:49;;;;;;;10.65;6.53;;;-3.40;80.70;;;;;;1915128;74;21116;-51
2023/01/09 10:41:33;;;;;;;18.23;10.48;;;-3.30;81.00;;;;;;1917555;75;21079;-46
2023/01/09 10:44:07;;;;;;;9.88;4.83;;;-3.30;82.00;;;;;;1917738;75;21113;-45
2023/01/09 10:46:40;;;;;;;19.82;9.70;;;-3.20;79.70;;;;;;1917624;74;20983;-46
2023/01/09 10:49:12;;;;;;;19.67;8.83;;;-3.20;81.80;;;;;;1917759;74;21109;-45
2023/01/09 10:51:52;;;;;;;7.58;4.83;;;-3.10;82.30;;;;;;1916050;74;21470;-45
2023/01/09 10:54:23;;;;;;;5.97;4.20;;;-3.10;81.30;;;;;;1917461;74;21072;-47
2023/01/09 10:56:56;;;;;;;5.03;2.70;;;-3.00;81.30;;;;;;1881068;76;21052;-46
2023/01/09 10:59:26;;;;;;;17.33;8.80;;;-3.00;80.40;;;;;;1865606;77;21015;-47
2023/01/09 11:01:56;;;;;;;11.28;7.03;;;;;;;;;;1865144;77;21129;-44
2023/01/09 11:04:32;;;;;;;14.73;7.47;;;;;;;;;;1865253;77;21070;-46
2023/01/09 11:07:18;;;;;;;8.50;6.75;;;;;;;;;;1865358;77;21157;-44
2023/01/09 11:09:56;;;;;;;10.08;4.95;;;;;;;;;;1864036;77;21035;-44
2023/01/09 11:12:26;;;;;;;8.83;5.70;;;;;;;;;;1864376;77;21172;-44
2023/01/09 11:14:55;;;;;;;10.18;5.72;;;;;;;;;;1861745;77;21043;-44
2023/01/09 11:17:27;;;;;;;8.15;6.33;;;;;;;;;;1862359;77;21149;-44
2023/01/09 11:20:03;;;;;;;14.47;7.10;;;;;;;;;;1862577;77;21133;-45
2023/01/09 11:22:32;;;;;;;6.67;5.22;;;;;;;;;;1862553;77;21094;-44
2023/01/09 11:25:02;;;;;;;5.80;4.25;;;;;;;;;;1859999;77;21011;-44
2023/01/09 11:27:30;;;;;;;10.15;5.97;;;;;;;;;;1861874;77;21070;-44
2023/01/09 11:30:09;;;;;;;14.23;5.03;;;;;;;;;;1862018;77;21052;-45
2023/01/09 11:32:38;;;;;;;12.95;8.25;;;;;;;;;;1861691;77;21059;-44
2023/01/09 11:35:07;;;;;;;5.00;3.37;;;;;;;;;;1861869;77;21024;-44
2023/01/09 11:37:36;;;;;;;15.90;7.75;;;;;;;;;;1841604;77;21340;-43
2023/01/09 11:40:05;;;;;;;16.93;9.43;;;;;;;;;;1850691;77;21090;-43
2023/01/09 11:42:54;;;;;;;4.25;3.17;;;;;;;;;;1841015;77;21450;-44
2023/01/09 11:45:21;;;;;;;9.43;6.60;;;;;;;;;;1861006;77;21381;-45
2023/01/09 11:47:49;;;;;;;7.03;4.53;;;;;;;;;;1861937;77;21055;-45
2023/01/09 11:50:19;;;;;;;21.23;10.23;;;;;;;;;;1861831;77;21099;-45
2023/01/09 11:53:06;;;;;;;13.28;7.67;;;;;;;;;;1861532;77;21059;-47
2023/01/09 11:55:35;;;;;;;17.70;10.48;;;;;;;;;;1861987;77;21106;-46
2023/01/09 11:58:03;;;;;;;17.87;11.18;;;;;;;;;;1861807;77;21118;-45
2023/01/09 12:00:33;;;;;;;17.50;10.60;;;;;;;;;;1861873;77;21109;-46
2023/01/09 12:03:09;;;;;;;11.20;7.45;;;;;;;;;;1861157;77;21011;-46
2023/01/09 12:05:49;;;;;;;16.48;9.08;;;;;;;;;;1831733;77;21128;-47
2023/01/09 12:08:19;;;;;;;13.75;8.60;;;;;;;;;;1830755;78;21067;-46
2023/01/09 12:10:59;;;;;;;14.15;7.67;;;;;;;;;;1830453;78;21119;-50
2023/01/09 12:13:42;;;;;;;7.00;4.42;;;;;;;;;;1830550;78;21138;-50
2023/01/09 12:16:21;;;;;;;6.33;4.50;;;;;;;;;;1830842;78;21131;-45
2023/01/09 12:19:03;;;;;;;20.10;10.78;;;;;;;;;;1836524;77;21082;-46
2023/01/09 12:21:34;;;;;;;8.05;6.58;;;;;;;;;;1849070;77;21233;-45
2023/01/09 12:24:19;;;;;;;9.73;6.80;;;;;;;;;;1844404;77;21047;-45
2023/01/09 12:26:50;;;;;;;13.78;9.08;;;;;;;;;;1850212;77;21180;-46
2023/01/09 12:29:39;;;;;;;21.62;10.35;;;;;;;;;;1835968;77;21097;-46
2023/01/09 12:32:21;;;;;;;10.32;6.55;;;;;;;;;;1853953;77;21058;-47
2023/01/09 12:35:06;;;;;;;9.00;5.95;;;;;;;;;;1887763;76;21105;-47
2023/01/09 12:37:48;;;;;;;13.28;8.83;;;;;;;;;;1890988;76;21065;-49
2023/01/09 12:40:18;;;;;;;7.62;6.37;;;;;;;;;;1887807;76;21084;-48
2023/01/09 12:42:51;;;;;;;7.00;4.58;;;;;;;;;;1861302;77;21018;-49
2023/01/09 12:45:20;;;;;;;14.50;8.15;;;;;;;;;;1861322;77;21057;-48
2023/01/09 12:47:51;;;;;;;14.40;8.50;;;;;;;;;;1861302;77;21414;-46
2023/01/09 12:50:21;;;;;;;4.85;3.72;;;;;;;;;;1861338;77;21026;-49
2023/01/09 12:52:51;;;;;;;12.37;7.70;;;;;;;;;;1822984;77;21137;-46
2023/01/09 12:55:20;;;;;;;17.42;7.85;;;;;;;;;;1860256;77;21097;-47
2023/01/09 12:57:50;;;;;;;12.68;7.47;;;;;;;;;;1861274;77;20999;-47
2023/01/09 13:00:23;;;;;;;20.32;9.93;;;;;;;;;;1861296;77;21042;-47
2023/01/09 13:02:53;;;;;;;16.57;9.20;;;;;;;;;;1861392;77;21019;-47
2023/01/09 13:05:23;;;;;;;18.77;9.75;;;;;;;;;;1861297;77;21066;-47
2023/01/09 13:07:53;;;;;;;21.48;10.72;;;;;;;;;;1861258;77;21039;-47
2023/01/09 13:10:23;;;;;;;17.82;10.15;;;;;;;;;;1861247;77;21038;-47
2023/01/09 13:12:52;;;;;;;11.35;7.50;;;;;;;;;;1858186;76;21060;-47
2023/01/09 13:15:34;;;;;;;17.48;11.40;;;;;;;;;;1854772;77;21042;-47
2023/01/09 13:18:07;;;;;;;15.25;7.80;;;;;;;;;;1845003;78;21034;-46
2023/01/09 13:20:37;;;;;;;9.15;4.40;;;;;;;;;;1877535;76;21112;-48
2023/01/09 13:23:06;;;;;;;15.28;9.28;;;;;;;;;;1854690;77;21071;-48
2023/01/09 13:25:40;;;;;;;11.10;5.28;;;;;;;;;;1854687;77;21128;-47
2023/01/09 13:28:20;;;;;;;16.73;9.80;;;;;;;;;;1853737;77;21095;-47
2023/01/09 13:30:53;;;;;;;18.30;9.20;;;;;;;;;;1854685;77;21080;-47
2023/01/09 13:33:23;;;;;;;10.82;6.42;;;;;;;;;;1854011;77;21003;-49
2023/01/09 13:35:53;;;;;;;10.80;7.65;;;;;;;;;;1876014;76;21034;-47
2023/01/09 13:38:25;;;;;;;12.00;9.08;;;;;;;;;;1884673;76;21520;-48
2023/01/09 13:44:01;;;;;;;21.33;10.48;;;;;;;;;;1854706;77;21054;-47
2023/01/09 13:46:37;;;;;;;20.75;10.18;;;;;;;;;;1854629;77;21019;-48
2023/01/09 13:49:05;;;;;;;24.47;10.82;;;;;;;;;;1845188;78;21140;-47
2023/01/09 13:51:38;;;;;;;17.62;10.63;;;;;;;;;;1878165;76;21034;-48
2023/01/09 13:54:08;;;;;;;24.10;8.28;;;;;;;;;;1851979;77;21051;-48
2023/01/09 13:56:54;;;;;;;18.30;9.35;;;;;;;;;;1854736;77;21030;-47
2023/01/09 13:59:28;;;;;;;19.05;9.50;;;;;;;;;;1854643;77;21188;-48
2023/01/09 14:01:56;;;;;;;26.73;10.45;;;;;;;;;;1854660;77;21007;-48
2023/01/09 14:04:29;;;;;;;20.52;11.10;;;;;;;;;;1845265;78;21144;-48
2023/01/09 14:07:16;;;;;;;24.80;11.30;;;;;;;;;;1876797;76;21033;-48
2023/01/09 14:09:49;;;;;;;23.50;10.55;;;;;;;;;;1845164;78;21082;-47
2023/01/09 14:12:19;;;;;;;17.45;9.98;;;;;;;;;;1877624;76;21026;-49
2023/01/09 14:14:48;;;;;;;19.65;11.88;;;;;;;;;;1884696;76;21061;-47
2023/01/09 14:17:19;;;;;;;24.98;12.15;;;;;;;;;;1878207;76;21023;-48
2023/01/09 14:19:48;;;;;;;23.20;11.88;;;;;;;;;;1854809;77;21019;-47
2023/01/09 14:22:18;;;;;;;20.88;12.13;;;;;;;;;;1854224;77;21140;-47
2023/01/09 14:24:51;;;;;;;23.45;11.90;;;;;;;;;;1844430;78;21078;-47
2023/01/09 14:27:35;;;;;;;26.50;12.37;;;;;;;;;;1877785;76;21535;-48
2023/01/09 14:30:18;;;;;;;34.80;12.63;;;;;;;;;;1845158;78;21058;-49
2023/01/09 14:32:47;;;;;;;27.02;12.30;;;;;;;;;;1850595;76;21022;-47
2023/01/09 14:35:17;;;;;;;27.65;13.90;;;;;;;;;;1853647;77;21081;-47